sensor_id;sensor_type;location;lat;lon;timestamp;pressure;altitude;pressure_sealevel;temperature
15079;BMP180;6932;51.438;5.470;2023-05-07T00:11:06;101233.00;;;20.60
15079;BMP180;6932;51.438;5.470;2023-05-07T00:13:32;101233.00;;;20.60
15079;BMP180;6932;51.438;5.470;2023-05-07T00:16:04;101226.00;;;20.70
15079;BMP180;6932;51.438;5.470;2023-05-07T00:18:30;101217.00;;;20.70
15079;BMP180;6932;51.438;5.470;2023-05-07T00:20:56;101218.00;;;20.70
15079;BMP180;6932;51.438;5.470;2023-05-07T00:23:23;101218.00;;;20.70
15079;BMP180;6932;51.438;5.470;2023-05-07T00:25:48;101209.00;;;20.70
15079;BMP180;6932;51.438;5.470;2023-05-07T00:28:14;101200.00;;;20.70
15079;BMP180;6932;51.438;5.470;2023-05-07T00:30:40;101212.00;;;20.70
15079;BMP180;6932;51.438;5.470;2023-05-07T00:33:06;101209.00;;;20.70
15079;BMP180;6932;51.438;5.470;2023-05-07T00:35:31;101206.00;;;20.70
15079;BMP180;6932;51.438;5.470;2023-05-07T00:37:57;101201.00;;;20.70
15079;BMP180;6932;51.438;5.470;2023-05-07T00:40:23;101200.00;;;20.70
15079;BMP180;6932;51.438;5.470;2023-05-07T00:42:49;101207.00;;;20.70
15079;BMP180;6932;51.438;5.470;2023-05-07T00:45:16;101205.00;;;20.70
15079;BMP180;6932;51.438;5.470;2023-05-07T00:47:42;101201.00;;;20.70
15079;BMP180;6932;51.438;5.470;2023-05-07T00:50:09;101191.00;;;20.70
15079;BMP180;6932;51.438;5.470;2023-05-07T00:52:38;101192.00;;;20.60
15079;BMP180;6932;51.438;5.470;2023-05-07T00:55:06;101199.00;;;20.60
15079;BMP180;6932;51.438;5.470;2023-05-07T00:57:39;101198.00;;;20.60
15079;BMP180;6932;51.438;5.470;2023-05-07T01:00:07;101201.00;;;20.60
15079;BMP180;6932;51.438;5.470;2023-05-07T01:02:41;101195.00;;;20.60
15079;BMP180;6932;51.438;5.470;2023-05-07T01:05:11;101203.00;;;20.60
15079;BMP180;6932;51.438;5.470;2023-05-07T01:07:40;101203.00;;;20.60
15079;BMP180;6932;51.438;5.470;2023-05-07T01:10:08;101191.00;;;20.60
15079;BMP180;6932;51.438;5.470;2023-05-07T01:12:37;101197.00;;;20.60
15079;BMP180;6932;51.438;5.470;2023-05-07T01:15:05;101190.00;;;20.60
15079;BMP180;6932;51.438;5.470;2023-05-07T01:17:35;101204.00;;;20.60
15079;BMP180;6932;51.438;5.470;2023-05-07T01:20:01;101190.00;;;20.60
15079;BMP180;6932;51.438;5.470;2023-05-07T01:22:35;101182.00;;;20.60
15079;BMP180;6932;51.438;5.470;2023-05-07T01:25:04;101182.00;;;20.60
15079;BMP180;6932;51.438;5.470;2023-05-07T01:27:30;101175.00;;;20.60
15079;BMP180;6932;51.438;5.470;2023-05-07T01:29:56;101177.00;;;20.60
15079;BMP180;6932;51.438;5.470;2023-05-07T01:32:53;101169.00;;;20.60
15079;BMP180;6932;51.438;5.470;2023-05-07T01:35:23;101171.00;;;20.60
15079;BMP180;6932;51.438;5.470;2023-05-07T01:37:50;101168.00;;;20.60
15079;BMP180;6932;51.438;5.470;2023-05-07T01:40:16;101170.00;;;20.60
15079;BMP180;6932;51.438;5.470;2023-05-07T01:42:46;101166.00;;;20.60
15079;BMP180;6932;51.438;5.470;2023-05-07T01:45:14;101168.00;;;20.60
15079;BMP180;6932;51.438;5.470;2023-05-07T01:47:40;101168.00;;;20.60
15079;BMP180;6932;51.438;5.470;2023-05-07T01:50:07;101165.00;;;20.60
15079;BMP180;6932;51.438;5.470;2023-05-07T01:52:34;101170.00;;;20.60
15079;BMP180;6932;51.438;5.470;2023-05-07T01:55:00;101162.00;;;20.60
15079;BMP180;6932;51.438;5.470;2023-05-07T01:57:26;101145.00;;;20.50
15079;BMP180;6932;51.438;5.470;2023-05-07T01:59:52;101159.00;;;20.50
15079;BMP180;6932;51.438;5.470;2023-05-07T02:02:17;101158.00;;;20.50
15079;BMP180;6932;51.438;5.470;2023-05-07T02:04:43;101156.00;;;20.50
15079;BMP180;6932;51.438;5.470;2023-05-07T02:07:09;101155.00;;;20.50
15079;BMP180;6932;51.438;5.470;2023-05-07T02:09:35;101155.00;;;20.50
15079;BMP180;6932;51.438;5.470;2023-05-07T02:12:01;101154.00;;;20.50
15079;BMP180;6932;51.438;5.470;2023-05-07T02:14:27;101156.00;;;20.50
15079;BMP180;6932;51.438;5.470;2023-05-07T02:16:52;101159.00;;;20.50
15079;BMP180;6932;51.438;5.470;2023-05-07T02:19:18;101164.00;;;20.40
15079;BMP180;6932;51.438;5.470;2023-05-07T02:21:46;101164.00;;;20.50
15079;BMP180;6932;51.438;5.470;2023-05-07T02:24:13;101169.00;;;20.50
15079;BMP180;6932;51.438;5.470;2023-05-07T02:26:40;101169.00;;;20.40
15079;BMP180;6932;51.438;5.470;2023-05-07T02:29:06;101176.00;;;20.40
15079;BMP180;6932;51.438;5.470;2023-05-07T02:31:32;101170.00;;;20.40
15079;BMP180;6932;51.438;5.470;2023-05-07T02:34:00;101177.00;;;20.40
15079;BMP180;6932;51.438;5.470;2023-05-07T02:40:01;101164.00;;;20.30
15079;BMP180;6932;51.438;5.470;2023-05-07T02:42:26;101177.00;;;20.30
15079;BMP180;6932;51.438;5.470;2023-05-07T02:44:52;101174.00;;;20.30
15079;BMP180;6932;51.438;5.470;2023-05-07T02:47:18;101167.00;;;20.30
15079;BMP180;6932;51.438;5.470;2023-05-07T02:49:44;101174.00;;;20.30
15079;BMP180;6932;51.438;5.470;2023-05-07T02:52:10;101174.00;;;20.30
15079;BMP180;6932;51.438;5.470;2023-05-07T03:02:06;101167.00;;;20.20
15079;BMP180;6932;51.438;5.470;2023-05-07T03:04:32;101178.00;;;20.20
15079;BMP180;6932;51.438;5.470;2023-05-07T03:06:58;101175.00;;;20.20
15079;BMP180;6932;51.438;5.470;2023-05-07T03:09:23;101178.00;;;20.20
15079;BMP180;6932;51.438;5.470;2023-05-07T03:11:49;101166.00;;;20.20
15079;BMP180;6932;51.438;5.470;2023-05-07T03:14:15;101167.00;;;20.20
15079;BMP180;6932;51.438;5.470;2023-05-07T03:16:41;101172.00;;;20.20
15079;BMP180;6932;51.438;5.470;2023-05-07T03:19:07;101158.00;;;20.20
15079;BMP180;6932;51.438;5.470;2023-05-07T03:21:32;101160.00;;;20.20
15079;BMP180;6932;51.438;5.470;2023-05-07T03:27:49;101162.00;;;20.20
15079;BMP180;6932;51.438;5.470;2023-05-07T03:30:15;101152.00;;;20.20
15079;BMP180;6932;51.438;5.470;2023-05-07T03:32:41;101151.00;;;20.20
15079;BMP180;6932;51.438;5.470;2023-05-07T03:35:07;101150.00;;;20.20
15079;BMP180;6932;51.438;5.470;2023-05-07T03:37:33;101152.00;;;20.20
15079;BMP180;6932;51.438;5.470;2023-05-07T03:39:58;101142.00;;;20.20
15079;BMP180;6932;51.438;5.470;2023-05-07T03:42:24;101147.00;;;20.20
15079;BMP180;6932;51.438;5.470;2023-05-07T03:44:50;101145.00;;;20.20
15079;BMP180;6932;51.438;5.470;2023-05-07T03:58:27;101150.00;;;20.20
15079;BMP180;6932;51.438;5.470;2023-05-07T04:00:53;101156.00;;;20.20
15079;BMP180;6932;51.438;5.470;2023-05-07T04:03:19;101141.00;;;20.20
15079;BMP180;6932;51.438;5.470;2023-05-07T04:05:45;101163.00;;;20.20
15079;BMP180;6932;51.438;5.470;2023-05-07T04:08:10;101159.00;;;20.20
15079;BMP180;6932;51.438;5.470;2023-05-07T04:10:36;101166.00;;;20.20
15079;BMP180;6932;51.438;5.470;2023-05-07T04:13:02;101166.00;;;20.20
15079;BMP180;6932;51.438;5.470;2023-05-07T04:15:27;101163.00;;;20.20
15079;BMP180;6932;51.438;5.470;2023-05-07T04:25:24;101172.00;;;20.10
15079;BMP180;6932;51.438;5.470;2023-05-07T04:27:52;101180.00;;;20.10
15079;BMP180;6932;51.438;5.470;2023-05-07T04:30:18;101180.00;;;20.20
15079;BMP180;6932;51.438;5.470;2023-05-07T04:32:44;101179.00;;;20.20
15079;BMP180;6932;51.438;5.470;2023-05-07T04:35:10;101174.00;;;20.20
15079;BMP180;6932;51.438;5.470;2023-05-07T04:37:36;101185.00;;;20.20
15079;BMP180;6932;51.438;5.470;2023-05-07T04:40:02;101176.00;;;20.20
15079;BMP180;6932;51.438;5.470;2023-05-07T04:42:28;101182.00;;;20.20
15079;BMP180;6932;51.438;5.470;2023-05-07T04:52:15;101175.00;;;20.10
15079;BMP180;6932;51.438;5.470;2023-05-07T04:54:42;101177.00;;;20.20
15079;BMP180;6932;51.438;5.470;2023-05-07T04:57:07;101187.00;;;20.20
15079;BMP180;6932;51.438;5.470;2023-05-07T04:59:33;101181.00;;;20.20
15079;BMP180;6932;51.438;5.470;2023-05-07T05:01:59;101182.00;;;20.20
15079;BMP180;6932;51.438;5.470;2023-05-07T05:04:25;101188.00;;;20.20
15079;BMP180;6932;51.438;5.470;2023-05-07T05:06:51;101181.00;;;20.20
15079;BMP180;6932;51.438;5.470;2023-05-07T05:09:16;101185.00;;;20.20
15079;BMP180;6932;51.438;5.470;2023-05-07T05:11:43;101188.00;;;20.20
15079;BMP180;6932;51.438;5.470;2023-05-07T05:14:08;101188.00;;;20.20
15079;BMP180;6932;51.438;5.470;2023-05-07T05:16:34;101189.00;;;20.20
15079;BMP180;6932;51.438;5.470;2023-05-07T05:19:01;101187.00;;;20.20
15079;BMP180;6932;51.438;5.470;2023-05-07T05:21:27;101202.00;;;20.20
15079;BMP180;6932;51.438;5.470;2023-05-07T05:23:53;101189.00;;;20.20
15079;BMP180;6932;51.438;5.470;2023-05-07T05:26:19;101195.00;;;20.20
15079;BMP180;6932;51.438;5.470;2023-05-07T05:28:46;101189.00;;;20.20
15079;BMP180;6932;51.438;5.470;2023-05-07T05:31:49;101197.00;;;20.20
15079;BMP180;6932;51.438;5.470;2023-05-07T05:34:15;101202.00;;;20.20
15079;BMP180;6932;51.438;5.470;2023-05-07T05:36:43;101195.00;;;20.20
15079;BMP180;6932;51.438;5.470;2023-05-07T05:39:09;101213.00;;;20.20
15079;BMP180;6932;51.438;5.470;2023-05-07T05:41:34;101216.00;;;20.20
15079;BMP180;6932;51.438;5.470;2023-05-07T05:44:00;101217.00;;;20.20
15079;BMP180;6932;51.438;5.470;2023-05-07T05:50:16;101219.00;;;20.20
15079;BMP180;6932;51.438;5.470;2023-05-07T05:52:42;101215.00;;;20.20
15079;BMP180;6932;51.438;5.470;2023-05-07T05:55:08;101218.00;;;20.20
15079;BMP180;6932;51.438;5.470;2023-05-07T05:57:35;101211.00;;;20.20
15079;BMP180;6932;51.438;5.470;2023-05-07T06:00:02;101219.00;;;20.20
15079;BMP180;6932;51.438;5.470;2023-05-07T06:02:28;101217.00;;;20.20
15079;BMP180;6932;51.438;5.470;2023-05-07T06:04:54;101211.00;;;20.20
15079;BMP180;6932;51.438;5.470;2023-05-07T06:07:19;101209.00;;;20.20
15079;BMP180;6932;51.438;5.470;2023-05-07T06:09:45;101207.00;;;20.20
15079;BMP180;6932;51.438;5.470;2023-05-07T06:12:12;101215.00;;;20.30
15079;BMP180;6932;51.438;5.470;2023-05-07T06:14:37;101220.00;;;20.30
15079;BMP180;6932;51.438;5.470;2023-05-07T06:17:03;101219.00;;;20.30
15079;BMP180;6932;51.438;5.470;2023-05-07T06:19:29;101216.00;;;20.30
15079;BMP180;6932;51.438;5.470;2023-05-07T06:21:55;101225.00;;;20.30
15079;BMP180;6932;51.438;5.470;2023-05-07T06:24:24;101219.00;;;20.30
15079;BMP180;6932;51.438;5.470;2023-05-07T06:26:50;101221.00;;;20.30
15079;BMP180;6932;51.438;5.470;2023-05-07T06:29:15;101224.00;;;20.40
15079;BMP180;6932;51.438;5.470;2023-05-07T06:31:41;101218.00;;;20.40
15079;BMP180;6932;51.438;5.470;2023-05-07T06:34:07;101226.00;;;20.40
15079;BMP180;6932;51.438;5.470;2023-05-07T06:36:33;101224.00;;;20.40
15079;BMP180;6932;51.438;5.470;2023-05-07T06:38:59;101220.00;;;20.40
15079;BMP180;6932;51.438;5.470;2023-05-07T06:41:25;101215.00;;;20.40
15079;BMP180;6932;51.438;5.470;2023-05-07T06:43:51;101217.00;;;20.50
15079;BMP180;6932;51.438;5.470;2023-05-07T06:46:17;101220.00;;;20.50
15079;BMP180;6932;51.438;5.470;2023-05-07T06:48:42;101230.00;;;20.50
15079;BMP180;6932;51.438;5.470;2023-05-07T06:51:08;101225.00;;;20.50
15079;BMP180;6932;51.438;5.470;2023-05-07T06:53:35;101234.00;;;20.60
15079;BMP180;6932;51.438;5.470;2023-05-07T06:56:01;101237.00;;;20.60
15079;BMP180;6932;51.438;5.470;2023-05-07T06:58:26;101233.00;;;20.60
15079;BMP180;6932;51.438;5.470;2023-05-07T07:00:52;101240.00;;;20.60
15079;BMP180;6932;51.438;5.470;2023-05-07T07:03:18;101238.00;;;20.70
15079;BMP180;6932;51.438;5.470;2023-05-07T07:05:44;101237.00;;;20.70
15079;BMP180;6932;51.438;5.470;2023-05-07T07:08:10;101241.00;;;20.70
15079;BMP180;6932;51.438;5.470;2023-05-07T07:10:36;101241.00;;;20.70
15079;BMP180;6932;51.438;5.470;2023-05-07T07:13:02;101243.00;;;20.70
15079;BMP180;6932;51.438;5.470;2023-05-07T07:15:27;101234.00;;;20.80
15079;BMP180;6932;51.438;5.470;2023-05-07T07:17:53;101238.00;;;20.80
15079;BMP180;6932;51.438;5.470;2023-05-07T07:20:19;101240.00;;;20.90
15079;BMP180;6932;51.438;5.470;2023-05-07T07:22:44;101248.00;;;20.90
15079;BMP180;6932;51.438;5.470;2023-05-07T07:25:10;101244.00;;;20.90
15079;BMP180;6932;51.438;5.470;2023-05-07T07:27:37;101235.00;;;21.00
15079;BMP180;6932;51.438;5.470;2023-05-07T07:30:04;101239.00;;;21.00
15079;BMP180;6932;51.438;5.470;2023-05-07T07:32:30;101256.00;;;21.00
15079;BMP180;6932;51.438;5.470;2023-05-07T07:34:57;101250.00;;;21.10
15079;BMP180;6932;51.438;5.470;2023-05-07T07:37:23;101246.00;;;21.10
15079;BMP180;6932;51.438;5.470;2023-05-07T07:39:51;101247.00;;;21.10
15079;BMP180;6932;51.438;5.470;2023-05-07T07:42:16;101243.00;;;21.20
15079;BMP180;6932;51.438;5.470;2023-05-07T07:44:42;101255.00;;;21.20
15079;BMP180;6932;51.438;5.470;2023-05-07T07:47:08;101258.00;;;21.30
15079;BMP180;6932;51.438;5.470;2023-05-07T07:49:33;101261.00;;;21.30
15079;BMP180;6932;51.438;5.470;2023-05-07T07:51:59;101257.00;;;21.40
15079;BMP180;6932;51.438;5.470;2023-05-07T07:54:25;101255.00;;;21.40
15079;BMP180;6932;51.438;5.470;2023-05-07T07:56:51;101253.00;;;21.40
15079;BMP180;6932;51.438;5.470;2023-05-07T07:59:17;101252.00;;;21.40
15079;BMP180;6932;51.438;5.470;2023-05-07T08:01:45;101260.00;;;21.40
15079;BMP180;6932;51.438;5.470;2023-05-07T08:04:10;101253.00;;;21.50
15079;BMP180;6932;51.438;5.470;2023-05-07T08:06:36;101253.00;;;21.50
15079;BMP180;6932;51.438;5.470;2023-05-07T08:09:02;101247.00;;;21.50
15079;BMP180;6932;51.438;5.470;2023-05-07T08:11:28;101252.00;;;21.50
15079;BMP180;6932;51.438;5.470;2023-05-07T08:13:54;101246.00;;;21.50
15079;BMP180;6932;51.438;5.470;2023-05-07T08:16:20;101243.00;;;21.60
15079;BMP180;6932;51.438;5.470;2023-05-07T08:18:46;101251.00;;;21.60
15079;BMP180;6932;51.438;5.470;2023-05-07T08:21:12;101254.00;;;21.60
15079;BMP180;6932;51.438;5.470;2023-05-07T08:23:38;101259.00;;;21.70
15079;BMP180;6932;51.438;5.470;2023-05-07T08:26:04;101265.00;;;21.70
15079;BMP180;6932;51.438;5.470;2023-05-07T08:28:29;101263.00;;;21.80
15079;BMP180;6932;51.438;5.470;2023-05-07T08:30:55;101268.00;;;21.80
15079;BMP180;6932;51.438;5.470;2023-05-07T08:33:22;101269.00;;;21.80
15079;BMP180;6932;51.438;5.470;2023-05-07T08:35:48;101270.00;;;21.90
15079;BMP180;6932;51.438;5.470;2023-05-07T08:38:13;101270.00;;;21.90
15079;BMP180;6932;51.438;5.470;2023-05-07T08:40:39;101276.00;;;22.00
15079;BMP180;6932;51.438;5.470;2023-05-07T08:43:28;101279.00;;;22.00
15079;BMP180;6932;51.438;5.470;2023-05-07T08:45:58;101275.00;;;22.00
15079;BMP180;6932;51.438;5.470;2023-05-07T08:48:29;101279.00;;;22.10
15079;BMP180;6932;51.438;5.470;2023-05-07T08:50:55;101283.00;;;22.10
15079;BMP180;6932;51.438;5.470;2023-05-07T08:53:21;101274.00;;;22.20
15079;BMP180;6932;51.438;5.470;2023-05-07T08:55:48;101270.00;;;22.20
15079;BMP180;6932;51.438;5.470;2023-05-07T08:58:14;101276.00;;;22.30
15079;BMP180;6932;51.438;5.470;2023-05-07T09:00:41;101275.00;;;22.30
15079;BMP180;6932;51.438;5.470;2023-05-07T09:04:03;101268.00;;;22.40
15079;BMP180;6932;51.438;5.470;2023-05-07T09:06:29;101274.00;;;22.40
15079;BMP180;6932;51.438;5.470;2023-05-07T09:08:55;101282.00;;;22.50
15079;BMP180;6932;51.438;5.470;2023-05-07T09:11:22;101288.00;;;22.60
15079;BMP180;6932;51.438;5.470;2023-05-07T09:13:54;101274.00;;;22.70
15079;BMP180;6932;51.438;5.470;2023-05-07T09:16:21;101275.00;;;22.70
15079;BMP180;6932;51.438;5.470;2023-05-07T09:18:51;101274.00;;;22.80
15079;BMP180;6932;51.438;5.470;2023-05-07T09:21:18;101277.00;;;22.90
15079;BMP180;6932;51.438;5.470;2023-05-07T09:23:44;101280.00;;;23.00
15079;BMP180;6932;51.438;5.470;2023-05-07T09:26:10;101275.00;;;23.10
15079;BMP180;6932;51.438;5.470;2023-05-07T09:28:41;101274.00;;;23.20
15079;BMP180;6932;51.438;5.470;2023-05-07T09:31:09;101278.00;;;23.20
15079;BMP180;6932;51.438;5.470;2023-05-07T09:33:35;101285.00;;;23.30
15079;BMP180;6932;51.438;5.470;2023-05-07T09:36:05;101287.00;;;23.40
15079;BMP180;6932;51.438;5.470;2023-05-07T09:38:35;101277.00;;;23.50
15079;BMP180;6932;51.438;5.470;2023-05-07T09:41:10;101275.00;;;23.50
15079;BMP180;6932;51.438;5.470;2023-05-07T09:43:39;101286.00;;;23.60
15079;BMP180;6932;51.438;5.470;2023-05-07T09:46:15;101273.00;;;23.60
15079;BMP180;6932;51.438;5.470;2023-05-07T09:48:44;101290.00;;;23.60
15079;BMP180;6932;51.438;5.470;2023-05-07T09:51:30;101282.00;;;23.70
15079;BMP180;6932;51.438;5.470;2023-05-07T09:53:57;101276.00;;;23.70
15079;BMP180;6932;51.438;5.470;2023-05-07T09:56:26;101278.00;;;23.70
15079;BMP180;6932;51.438;5.470;2023-05-07T09:58:56;101280.00;;;23.80
15079;BMP180;6932;51.438;5.470;2023-05-07T10:01:25;101281.00;;;23.90
15079;BMP180;6932;51.438;5.470;2023-05-07T10:03:52;101283.00;;;23.90
15079;BMP180;6932;51.438;5.470;2023-05-07T10:06:20;101285.00;;;24.00
15079;BMP180;6932;51.438;5.470;2023-05-07T10:08:47;101284.00;;;24.00
15079;BMP180;6932;51.438;5.470;2023-05-07T10:11:14;101284.00;;;24.10
15079;BMP180;6932;51.438;5.470;2023-05-07T10:13:42;101279.00;;;24.10
15079;BMP180;6932;51.438;5.470;2023-05-07T10:16:09;101283.00;;;24.20
15079;BMP180;6932;51.438;5.470;2023-05-07T10:18:34;101279.00;;;24.30
15079;BMP180;6932;51.438;5.470;2023-05-07T10:21:17;101286.00;;;24.40
15079;BMP180;6932;51.438;5.470;2023-05-07T10:23:58;101288.00;;;24.40
15079;BMP180;6932;51.438;5.470;2023-05-07T10:26:25;101283.00;;;24.50
15079;BMP180;6932;51.438;5.470;2023-05-07T10:29:02;101275.00;;;24.50
15079;BMP180;6932;51.438;5.470;2023-05-07T10:34:41;101280.00;;;24.60
15079;BMP180;6932;51.438;5.470;2023-05-07T10:37:09;101291.00;;;24.70
15079;BMP180;6932;51.438;5.470;2023-05-07T10:39:36;101279.00;;;24.80
15079;BMP180;6932;51.438;5.470;2023-05-07T10:42:13;101280.00;;;24.90
15079;BMP180;6932;51.438;5.470;2023-05-07T10:44:40;101290.00;;;24.90
15079;BMP180;6932;51.438;5.470;2023-05-07T10:47:14;101293.00;;;25.00
15079;BMP180;6932;51.438;5.470;2023-05-07T10:52:21;101289.00;;;25.00
15079;BMP180;6932;51.438;5.470;2023-05-07T10:54:47;101294.00;;;25.00
15079;BMP180;6932;51.438;5.470;2023-05-07T10:59:57;101299.00;;;25.00
15079;BMP180;6932;51.438;5.470;2023-05-07T11:05:31;101297.00;;;25.10
15079;BMP180;6932;51.438;5.470;2023-05-07T11:07:59;101294.00;;;25.10
15079;BMP180;6932;51.438;5.470;2023-05-07T11:10:55;101296.00;;;25.10
15079;BMP180;6932;51.438;5.470;2023-05-07T11:13:49;101300.00;;;25.10
15079;BMP180;6932;51.438;5.470;2023-05-07T11:16:23;101290.00;;;25.20
15079;BMP180;6932;51.438;5.470;2023-05-07T11:18:54;101294.00;;;25.20
15079;BMP180;6932;51.438;5.470;2023-05-07T11:25:06;101290.00;;;25.20
15079;BMP180;6932;51.438;5.470;2023-05-07T11:27:33;101281.00;;;25.20
15079;BMP180;6932;51.438;5.470;2023-05-07T11:29:59;101287.00;;;25.20
15079;BMP180;6932;51.438;5.470;2023-05-07T11:32:28;101289.00;;;25.20
15079;BMP180;6932;51.438;5.470;2023-05-07T11:34:57;101290.00;;;25.20
15079;BMP180;6932;51.438;5.470;2023-05-07T11:37:24;101290.00;;;25.20
15079;BMP180;6932;51.438;5.470;2023-05-07T11:39:51;101286.00;;;25.30
15079;BMP180;6932;51.438;5.470;2023-05-07T11:42:35;101289.00;;;25.30
15079;BMP180;6932;51.438;5.470;2023-05-07T11:45:03;101292.00;;;25.30
15079;BMP180;6932;51.438;5.470;2023-05-07T11:47:33;101292.00;;;25.30
15079;BMP180;6932;51.438;5.470;2023-05-07T11:50:07;101288.00;;;25.30
15079;BMP180;6932;51.438;5.470;2023-05-07T11:52:34;101283.00;;;25.30
15079;BMP180;6932;51.438;5.470;2023-05-07T11:55:01;101302.00;;;25.40
15079;BMP180;6932;51.438;5.470;2023-05-07T11:57:27;101293.00;;;25.30
15079;BMP180;6932;51.438;5.470;2023-05-07T11:59:58;101300.00;;;25.40
15079;BMP180;6932;51.438;5.470;2023-05-07T12:06:10;101295.00;;;25.30
15079;BMP180;6932;51.438;5.470;2023-05-07T12:08:42;101289.00;;;25.40
15079;BMP180;6932;51.438;5.470;2023-05-07T12:11:24;101292.00;;;25.40
15079;BMP180;6932;51.438;5.470;2023-05-07T12:13:51;101293.00;;;25.30
15079;BMP180;6932;51.438;5.470;2023-05-07T12:16:18;101285.00;;;25.30
15079;BMP180;6932;51.438;5.470;2023-05-07T12:18:45;101283.00;;;25.30
15079;BMP180;6932;51.438;5.470;2023-05-07T12:21:11;101292.00;;;25.20
15079;BMP180;6932;51.438;5.470;2023-05-07T12:23:39;101305.00;;;25.20
15079;BMP180;6932;51.438;5.470;2023-05-07T12:26:05;101323.00;;;25.20
15079;BMP180;6932;51.438;5.470;2023-05-07T12:28:36;101337.00;;;25.20
15079;BMP180;6932;51.438;5.470;2023-05-07T12:31:02;101368.00;;;25.20
15079;BMP180;6932;51.438;5.470;2023-05-07T12:33:29;101380.00;;;25.10
15079;BMP180;6932;51.438;5.470;2023-05-07T12:35:56;101352.00;;;24.90
15079;BMP180;6932;51.438;5.470;2023-05-07T12:38:22;101366.00;;;24.70
15079;BMP180;6932;51.438;5.470;2023-05-07T12:40:50;101370.00;;;24.30
15079;BMP180;6932;51.438;5.470;2023-05-07T12:43:27;101383.00;;;23.90
15079;BMP180;6932;51.438;5.470;2023-05-07T12:45:59;101370.00;;;23.50
15079;BMP180;6932;51.438;5.470;2023-05-07T12:48:25;101370.00;;;23.20
15079;BMP180;6932;51.438;5.470;2023-05-07T12:50:59;101379.00;;;23.00
15079;BMP180;6932;51.438;5.470;2023-05-07T12:53:27;101385.00;;;22.70
15079;BMP180;6932;51.438;5.470;2023-05-07T12:55:57;101374.00;;;22.50
15079;BMP180;6932;51.438;5.470;2023-05-07T13:00:52;101388.00;;;22.20
15079;BMP180;6932;51.438;5.470;2023-05-07T13:03:27;101391.00;;;22.10
15079;BMP180;6932;51.438;5.470;2023-05-07T13:05:57;101408.00;;;21.90
15079;BMP180;6932;51.438;5.470;2023-05-07T13:08:31;101410.00;;;21.90
15079;BMP180;6932;51.438;5.470;2023-05-07T13:11:03;101411.00;;;21.80
15079;BMP180;6932;51.438;5.470;2023-05-07T13:13:35;101415.00;;;21.80
15079;BMP180;6932;51.438;5.470;2023-05-07T13:16:03;101417.00;;;21.80
15079;BMP180;6932;51.438;5.470;2023-05-07T13:18:30;101410.00;;;21.80
15079;BMP180;6932;51.438;5.470;2023-05-07T13:20:57;101416.00;;;21.90
15079;BMP180;6932;51.438;5.470;2023-05-07T13:23:23;101411.00;;;21.90
15079;BMP180;6932;51.438;5.470;2023-05-07T13:25:49;101419.00;;;22.00
15079;BMP180;6932;51.438;5.470;2023-05-07T13:28:15;101414.00;;;22.00
15079;BMP180;6932;51.438;5.470;2023-05-07T13:30:41;101417.00;;;22.10
15079;BMP180;6932;51.438;5.470;2023-05-07T13:33:07;101419.00;;;22.10
15079;BMP180;6932;51.438;5.470;2023-05-07T13:35:33;101413.00;;;22.20
15079;BMP180;6932;51.438;5.470;2023-05-07T13:37:59;101408.00;;;22.30
15079;BMP180;6932;51.438;5.470;2023-05-07T13:40:25;101401.00;;;22.30
15079;BMP180;6932;51.438;5.470;2023-05-07T13:42:51;101405.00;;;22.40
15079;BMP180;6932;51.438;5.470;2023-05-07T13:45:18;101406.00;;;22.40
15079;BMP180;6932;51.438;5.470;2023-05-07T13:47:45;101413.00;;;22.50
15079;BMP180;6932;51.438;5.470;2023-05-07T13:50:11;101411.00;;;22.50
15079;BMP180;6932;51.438;5.470;2023-05-07T13:52:43;101412.00;;;22.60
15079;BMP180;6932;51.438;5.470;2023-05-07T13:58:49;101410.00;;;22.60
15079;BMP180;6932;51.438;5.470;2023-05-07T14:01:15;101409.00;;;22.70
15079;BMP180;6932;51.438;5.470;2023-05-07T14:03:41;101417.00;;;22.70
15079;BMP180;6932;51.438;5.470;2023-05-07T14:06:06;101405.00;;;22.80
15079;BMP180;6932;51.438;5.470;2023-05-07T14:08:32;101410.00;;;22.80
15079;BMP180;6932;51.438;5.470;2023-05-07T14:10:58;101404.00;;;22.90
15079;BMP180;6932;51.438;5.470;2023-05-07T14:13:23;101407.00;;;22.90
15079;BMP180;6932;51.438;5.470;2023-05-07T14:15:49;101409.00;;;22.90
15079;BMP180;6932;51.438;5.470;2023-05-07T14:18:16;101409.00;;;23.00
15079;BMP180;6932;51.438;5.470;2023-05-07T14:24:35;101396.00;;;23.00
15079;BMP180;6932;51.438;5.470;2023-05-07T14:27:01;101405.00;;;23.00
15079;BMP180;6932;51.438;5.470;2023-05-07T14:29:28;101403.00;;;23.00
15079;BMP180;6932;51.438;5.470;2023-05-07T14:31:54;101404.00;;;23.00
15079;BMP180;6932;51.438;5.470;2023-05-07T14:34:19;101420.00;;;22.90
15079;BMP180;6932;51.438;5.470;2023-05-07T14:52:48;101424.00;;;22.60
15079;BMP180;6932;51.438;5.470;2023-05-07T14:55:13;101429.00;;;22.60
15079;BMP180;6932;51.438;5.470;2023-05-07T14:57:39;101431.00;;;22.60
15079;BMP180;6932;51.438;5.470;2023-05-07T15:00:06;101426.00;;;22.60
15079;BMP180;6932;51.438;5.470;2023-05-07T15:02:32;101426.00;;;22.60
15079;BMP180;6932;51.438;5.470;2023-05-07T15:04:59;101423.00;;;22.60
15079;BMP180;6932;51.438;5.470;2023-05-07T15:07:25;101423.00;;;22.60
15079;BMP180;6932;51.438;5.470;2023-05-07T15:09:51;101424.00;;;22.60
15079;BMP180;6932;51.438;5.470;2023-05-07T15:12:51;101430.00;;;22.60
15079;BMP180;6932;51.438;5.470;2023-05-07T15:15:16;101429.00;;;22.60
15079;BMP180;6932;51.438;5.470;2023-05-07T15:17:42;101429.00;;;22.60
15079;BMP180;6932;51.438;5.470;2023-05-07T15:20:08;101432.00;;;22.70
15079;BMP180;6932;51.438;5.470;2023-05-07T15:22:35;101437.00;;;22.70
15079;BMP180;6932;51.438;5.470;2023-05-07T15:25:03;101438.00;;;22.70
15079;BMP180;6932;51.438;5.470;2023-05-07T15:27:30;101434.00;;;22.70
15079;BMP180;6932;51.438;5.470;2023-05-07T15:29:57;101434.00;;;22.80
15079;BMP180;6932;51.438;5.470;2023-05-07T15:32:23;101440.00;;;22.80
15079;BMP180;6932;51.438;5.470;2023-05-07T15:34:48;101429.00;;;22.80
15079;BMP180;6932;51.438;5.470;2023-05-07T15:37:14;101434.00;;;22.90
15079;BMP180;6932;51.438;5.470;2023-05-07T15:39:40;101428.00;;;22.90
15079;BMP180;6932;51.438;5.470;2023-05-07T15:42:06;101432.00;;;22.90
15079;BMP180;6932;51.438;5.470;2023-05-07T15:44:31;101434.00;;;22.90
15079;BMP180;6932;51.438;5.470;2023-05-07T15:46:59;101434.00;;;23.00
15079;BMP180;6932;51.438;5.470;2023-05-07T15:49:25;101426.00;;;23.00
15079;BMP180;6932;51.438;5.470;2023-05-07T15:51:51;101421.00;;;23.00